Time,TemperatureF,DewpointF,PressureIn,WindDirection,WindDirectionDegrees,WindSpeedMPH,WindSpeedGustMPH,Humidity,HourlyPrecipIn,Conditions,Clouds,dailyrainin,SolarRadiationWatts/m^2,SoftwareType,DateUTC
2013-02-01 00:01:00,35.0,33.0,-100.00,West,277,5.0,12.0,91,0.00,,,0.00,0.000000,,2013-02-01 08:01:00,
2013-02-01 00:11:00,35.0,33.0,-100.00,West,277,5.0,12.0,91,0.00,,,0.00,0.000000,,2013-02-01 08:11:00,
2013-02-01 00:21:00,35.0,33.0,-100.00,West,277,5.0,12.0,91,0.00,,,0.00,0.000000,,2013-02-01 08:21:00,
2013-02-01 00:31:00,35.0,33.0,-100.00,West,277,5.0,12.0,91,0.00,,,0.00,0.000000,,2013-02-01 08:31:00,
2013-02-01 00:52:00,34.0,32.0,-100.00,WNW,288,8.0,14.0,94,0.00,,,0.00,0.000000,,2013-02-01 08:52:00,
2013-02-01 01:01:00,34.0,32.0,-100.00,WNW,288,8.0,14.0,94,0.00,,,0.00,0.000000,,2013-02-01 09:01:00,
2013-02-01 01:11:00,34.0,32.0,-100.00,WNW,288,8.0,14.0,94,0.00,,,0.00,0.000000,,2013-02-01 09:11:00,
2013-02-01 01:21:00,34.0,32.0,-100.00,WNW,288,8.0,14.0,94,0.00,,,0.00,0.000000,,2013-02-01 09:21:00,
2013-02-01 01:31:00,34.0,32.0,-100.00,WNW,288,8.0,14.0,94,0.00,,,0.00,0.000000,,2013-02-01 09:31:00,
2013-02-01 01:52:00,33.0,32.0,-100.00,WNW,285,7.0,13.0,97,0.00,,,0.00,0.000000,,2013-02-01 09:52:00,
2013-02-01 02:01:00,33.0,32.0,-100.00,WNW,285,7.0,13.0,97,0.00,,,0.00,0.000000,,2013-02-01 10:01:00,
2013-02-01 02:11:00,33.0,32.0,-100.00,WNW,285,7.0,13.0,97,0.00,,,0.00,0.000000,,2013-02-01 10:11:00,
2013-02-01 02:21:00,33.0,32.0,-100.00,WNW,285,7.0,13.0,97,0.00,,,0.00,0.000000,,2013-02-01 10:21:00,
2013-02-01 02:31:00,33.0,32.0,-100.00,WNW,285,7.0,13.0,97,0.00,,,0.00,0.000000,,2013-02-01 10:31:00,
2013-02-01 02:53:00,34.0,31.0,-100.00,West,277,6.0,11.0,89,0.00,,,0.00,0.000000,,2013-02-01 10:53:00,
2013-02-01 03:01:00,34.0,31.0,-100.00,West,277,6.0,11.0,89,0.00,,,0.00,0.000000,,2013-02-01 11:01:00,
2013-02-01 03:11:00,34.0,31.0,-100.00,West,277,6.0,11.0,89,0.00,,,0.00,0.000000,,2013-02-01 11:11:00,
2013-02-01 03:21:00,34.0,31.0,-100.00,West,277,6.0,11.0,89,0.00,,,0.00,0.000000,,2013-02-01 11:21:00,
2013-02-01 03:31:00,34.0,31.0,-100.00,West,277,6.0,11.0,89,0.00,,,0.00,0.000000,,2013-02-01 11:31:00,
2013-02-01 03:53:00,33.0,31.0,-100.00,WNW,295,6.0,11.0,91,0.00,,,0.00,0.000000,,2013-02-01 11:53:00,
2013-02-01 04:02:00,33.0,31.0,-100.00,WNW,295,6.0,11.0,91,0.00,,,0.00,0.000000,,2013-02-01 12:02:00,
2013-02-01 04:12:00,33.0,31.0,-100.00,WNW,295,6.0,11.0,91,0.00,,,0.00,0.000000,,2013-02-01 12:12:00,
2013-02-01 04:22:00,33.0,31.0,-100.00,WNW,295,6.0,11.0,91,0.00,,,0.00,0.000000,,2013-02-01 12:22:00,
2013-02-01 04:32:00,33.0,31.0,-100.00,WNW,295,6.0,11.0,91,0.00,,,0.00,0.000000,,2013-02-01 12:32:00,
2013-02-01 04:52:00,33.0,31.0,-100.00,WNW,287,7.0,10.0,91,0.00,,,0.00,0.000000,,2013-02-01 12:52:00,
2013-02-01 05:02:00,33.0,31.0,-100.00,WNW,287,7.0,10.0,91,0.00,,,0.00,0.000000,,2013-02-01 13:02:00,
2013-02-01 05:11:00,33.0,31.0,-100.00,WNW,287,7.0,10.0,91,0.00,,,0.00,0.000000,,2013-02-01 13:11:00,
2013-02-01 05:21:00,33.0,31.0,-100.00,WNW,287,7.0,10.0,91,0.00,,,0.00,0.000000,,2013-02-01 13:21:00,
2013-02-01 05:32:00,33.0,31.0,-100.00,WNW,287,7.0,10.0,91,0.00,,,0.00,0.000000,,2013-02-01 13:32:00,
2013-02-01 05:53:00,34.0,31.0,-100.00,West,263,4.0,8.0,87,0.00,,,0.00,0.000000,,2013-02-01 13:53:00,
2013-02-01 06:03:00,34.0,31.0,-100.00,West,263,4.0,8.0,87,0.00,,,0.00,0.000000,,2013-02-01 14:03:00,
2013-02-01 06:11:00,34.0,31.0,-100.00,West,263,4.0,8.0,87,0.00,,,0.00,0.000000,,2013-02-01 14:11:00,
2013-02-01 06:21:00,34.0,31.0,-100.00,West,263,4.0,8.0,87,0.00,,,0.00,0.000000,,2013-02-01 14:21:00,
2013-02-01 06:31:00,34.0,31.0,-100.00,West,263,4.0,8.0,87,0.00,,,0.00,0.000000,,2013-02-01 14:31:00,
2013-02-01 06:53:00,34.0,31.0,-100.00,WNW,287,6.0,9.0,88,0.00,,,0.00,0.000000,,2013-02-01 14:53:00,
2013-02-01 07:02:00,34.0,31.0,-100.00,WNW,287,6.0,9.0,88,0.00,,,0.00,0.000000,,2013-02-01 15:02:00,
2013-02-01 07:12:00,34.0,31.0,-100.00,WNW,287,6.0,9.0,88,0.00,,,0.00,0.000000,,2013-02-01 15:12:00,
2013-02-01 07:21:00,34.0,31.0,-100.00,WNW,287,6.0,9.0,88,0.00,,,0.00,0.000000,,2013-02-01 15:21:00,
2013-02-01 07:32:00,34.0,31.0,-100.00,WNW,287,6.0,9.0,88,0.00,,,0.00,0.000000,,2013-02-01 15:32:00,
2013-02-01 07:52:00,33.0,30.0,-100.00,WSW,255,4.0,6.0,89,0.00,,,0.00,2.000000,,2013-02-01 15:52:00,
2013-02-01 08:02:00,33.0,30.0,-100.00,WSW,255,4.0,6.0,89,0.00,,,0.00,2.000000,,2013-02-01 16:02:00,
2013-02-01 08:11:00,33.0,30.0,-100.00,WSW,255,4.0,6.0,89,0.00,,,0.00,2.000000,,2013-02-01 16:11:00,
2013-02-01 08:21:00,33.0,30.0,-100.00,WSW,255,4.0,6.0,89,0.00,,,0.00,2.000000,,2013-02-01 16:21:00,
2013-02-01 08:32:00,33.0,30.0,-100.00,WSW,255,4.0,6.0,89,0.00,,,0.00,2.000000,,2013-02-01 16:32:00,
2013-02-01 08:52:00,36.0,32.0,-100.00,SSW,208,5.0,6.0,86,0.00,,,0.00,43.000000,,2013-02-01 16:52:00,
2013-02-01 09:02:00,36.0,32.0,-100.00,SSW,208,5.0,6.0,86,0.00,,,0.00,43.000000,,2013-02-01 17:02:00,
2013-02-01 09:11:00,36.0,32.0,-100.00,SSW,208,5.0,6.0,86,0.00,,,0.00,43.000000,,2013-02-01 17:11:00,
2013-02-01 09:22:00,36.0,32.0,-100.00,SSW,208,5.0,6.0,86,0.00,,,0.00,43.000000,,2013-02-01 17:22:00,
2013-02-01 09:31:00,36.0,32.0,-100.00,SSW,208,5.0,6.0,86,0.00,,,0.00,43.000000,,2013-02-01 17:31:00,
2013-02-01 09:53:00,38.0,33.0,-100.00,SSW,206,6.0,9.0,81,0.00,,,0.00,257.000000,,2013-02-01 17:53:00,
2013-02-01 10:02:00,38.0,33.0,-100.00,SSW,206,6.0,9.0,81,0.00,,,0.00,257.000000,,2013-02-01 18:02:00,
2013-02-01 10:12:00,38.0,33.0,-100.00,SSW,206,6.0,9.0,81,0.00,,,0.00,257.000000,,2013-02-01 18:12:00,
2013-02-01 10:22:00,38.0,33.0,-100.00,SSW,206,6.0,9.0,81,0.00,,,0.00,257.000000,,2013-02-01 18:22:00,
2013-02-01 10:31:00,38.0,33.0,-100.00,SSW,206,6.0,9.0,81,0.00,,,0.00,257.000000,,2013-02-01 18:31:00,
2013-02-01 10:53:00,39.0,32.0,-100.00,SSW,213,4.0,11.0,77,0.00,,,0.00,360.000000,,2013-02-01 18:53:00,
2013-02-01 11:02:00,39.0,32.0,-100.00,SSW,213,4.0,11.0,77,0.00,,,0.00,360.000000,,2013-02-01 19:02:00,
2013-02-01 11:11:00,39.0,32.0,-100.00,SSW,213,4.0,11.0,77,0.00,,,0.00,360.000000,,2013-02-01 19:11:00,
2013-02-01 11:21:00,39.0,32.0,-100.00,SSW,213,4.0,11.0,77,0.00,,,0.00,360.000000,,2013-02-01 19:21:00,
2013-02-01 11:31:00,39.0,32.0,-100.00,SSW,213,4.0,11.0,77,0.00,,,0.00,360.000000,,2013-02-01 19:31:00,
2013-02-01 11:52:00,43.0,35.0,-100.00,SSE,153,3.0,7.0,72,0.00,,,0.00,450.000000,,2013-02-01 19:52:00,
2013-02-01 12:02:00,43.0,35.0,-100.00,SSE,153,3.0,7.0,72,0.00,,,0.00,450.000000,,2013-02-01 20:02:00,
2013-02-01 12:11:00,43.0,35.0,-100.00,SSE,153,3.0,7.0,72,0.00,,,0.00,450.000000,,2013-02-01 20:11:00,
2013-02-01 12:21:00,43.0,35.0,-100.00,SSE,153,3.0,7.0,72,0.00,,,0.00,450.000000,,2013-02-01 20:21:00,
2013-02-01 12:31:00,43.0,35.0,-100.00,SSE,153,3.0,7.0,72,0.00,,,0.00,450.000000,,2013-02-01 20:31:00,
2013-02-01 12:52:00,44.0,34.0,-100.00,SSW,209,4.0,7.0,67,0.00,,,0.00,460.000000,,2013-02-01 20:52:00,
2013-02-01 13:01:00,44.0,34.0,-100.00,SSW,209,4.0,7.0,67,0.00,,,0.00,460.000000,,2013-02-01 21:01:00,
2013-02-01 13:11:00,44.0,34.0,-100.00,SSW,209,4.0,7.0,67,0.00,,,0.00,460.000000,,2013-02-01 21:11:00,
2013-02-01 13:21:00,44.0,34.0,-100.00,SSW,209,4.0,7.0,67,0.00,,,0.00,460.000000,,2013-02-01 21:21:00,
2013-02-01 13:31:00,44.0,34.0,-100.00,SSW,209,4.0,7.0,67,0.00,,,0.00,460.000000,,2013-02-01 21:31:00,
2013-02-01 13:52:00,46.0,34.0,-100.00,SSW,206,4.0,7.0,62,0.00,,,0.00,462.000000,,2013-02-01 21:52:00,
2013-02-01 14:02:00,46.0,34.0,-100.00,SSW,206,4.0,7.0,62,0.00,,,0.00,462.000000,,2013-02-01 22:02:00,
2013-02-01 14:11:00,46.0,34.0,-100.00,SSW,206,4.0,7.0,62,0.00,,,0.00,462.000000,,2013-02-01 22:11:00,
2013-02-01 14:21:00,46.0,34.0,-100.00,SSW,206,4.0,7.0,62,0.00,,,0.00,462.000000,,2013-02-01 22:21:00,
2013-02-01 14:32:00,46.0,34.0,-100.00,SSW,206,4.0,7.0,62,0.00,,,0.00,462.000000,,2013-02-01 22:32:00,
2013-02-01 14:52:00,48.0,34.0,-100.00,SSE,153,3.0,6.0,58,0.00,,,0.00,405.000000,,2013-02-01 22:52:00,
2013-02-01 15:01:00,48.0,34.0,-100.00,SSE,153,3.0,6.0,58,0.00,,,0.00,405.000000,,2013-02-01 23:01:00,
2013-02-01 15:11:00,48.0,34.0,-100.00,SSE,153,3.0,6.0,58,0.00,,,0.00,405.000000,,2013-02-01 23:11:00,
2013-02-01 15:21:00,48.0,34.0,-100.00,SSE,153,3.0,6.0,58,0.00,,,0.00,405.000000,,2013-02-01 23:21:00,
2013-02-01 15:31:00,48.0,34.0,-100.00,SSE,153,3.0,6.0,58,0.00,,,0.00,405.000000,,2013-02-01 23:31:00,
2013-02-01 15:52:00,47.0,26.0,-100.00,East,88,3.0,4.0,44,0.00,,,0.00,306.000000,,2013-02-01 23:52:00,
2013-02-01 16:02:00,47.0,26.0,-100.00,East,88,3.0,4.0,44,0.00,,,0.00,306.000000,,2013-02-02 00:02:00,
2013-02-01 16:11:00,47.0,26.0,-100.00,East,88,3.0,4.0,44,0.00,,,0.00,306.000000,,2013-02-02 00:11:00,
2013-02-01 16:21:00,47.0,26.0,-100.00,East,88,3.0,4.0,44,0.00,,,0.00,306.000000,,2013-02-02 00:21:00,
2013-02-01 16:32:00,47.0,26.0,-100.00,East,88,3.0,4.0,44,0.00,,,0.00,306.000000,,2013-02-02 00:32:00,
2013-02-01 16:52:00,42.0,24.0,-100.00,ENE,72,6.0,9.0,48,0.00,,,0.00,87.000000,,2013-02-02 00:52:00,
2013-02-01 17:02:00,42.0,24.0,-100.00,ENE,72,6.0,9.0,48,0.00,,,0.00,87.000000,,2013-02-02 01:02:00,
2013-02-01 17:11:00,42.0,24.0,-100.00,ENE,72,6.0,9.0,48,0.00,,,0.00,87.000000,,2013-02-02 01:11:00,
2013-02-01 17:21:00,42.0,24.0,-100.00,ENE,72,6.0,9.0,48,0.00,,,0.00,87.000000,,2013-02-02 01:21:00,
2013-02-01 17:31:00,42.0,24.0,-100.00,ENE,72,6.0,9.0,48,0.00,,,0.00,87.000000,,2013-02-02 01:31:00,
2013-02-01 17:52:00,40.0,29.0,-100.00,ENE,63,8.0,12.0,65,0.00,,,0.00,14.000000,,2013-02-02 01:52:00,
2013-02-01 18:01:00,40.0,29.0,-100.00,ENE,63,8.0,12.0,65,0.00,,,0.00,14.000000,,2013-02-02 02:01:00,
2013-02-01 18:11:00,40.0,29.0,-100.00,ENE,63,8.0,12.0,65,0.00,,,0.00,14.000000,,2013-02-02 02:11:00,
2013-02-01 18:21:00,40.0,29.0,-100.00,ENE,63,8.0,12.0,65,0.00,,,0.00,14.000000,,2013-02-02 02:21:00,
2013-02-01 18:31:00,40.0,29.0,-100.00,ENE,63,8.0,12.0,65,0.00,,,0.00,14.000000,,2013-02-02 02:31:00,
2013-02-01 18:52:00,39.0,31.0,-100.00,ENE,64,10.0,13.0,74,0.00,,,0.00,0.000000,,2013-02-02 02:52:00,
2013-02-01 19:02:00,39.0,31.0,-100.00,ENE,64,10.0,13.0,74,0.00,,,0.00,0.000000,,2013-02-02 03:02:00,
2013-02-01 19:11:00,39.0,31.0,-100.00,ENE,64,10.0,13.0,74,0.00,,,0.00,0.000000,,2013-02-02 03:11:00,
2013-02-01 19:21:00,39.0,31.0,-100.00,ENE,64,10.0,13.0,74,0.00,,,0.00,0.000000,,2013-02-02 03:21:00,
2013-02-01 19:32:00,39.0,31.0,-100.00,ENE,64,10.0,13.0,74,0.00,,,0.00,0.000000,,2013-02-02 03:32:00,
2013-02-01 19:52:00,40.0,30.0,-100.00,ENE,60,10.0,13.0,66,0.00,,,0.00,0.000000,,2013-02-02 03:52:00,
2013-02-01 20:01:00,40.0,30.0,-100.00,ENE,60,10.0,13.0,66,0.00,,,0.00,0.000000,,2013-02-02 04:01:00,
2013-02-01 20:11:00,40.0,30.0,-100.00,ENE,60,10.0,13.0,66,0.00,,,0.00,0.000000,,2013-02-02 04:11:00,
2013-02-01 20:21:00,40.0,30.0,-100.00,ENE,60,10.0,13.0,66,0.00,,,0.00,0.000000,,2013-02-02 04:21:00,
2013-02-01 20:32:00,40.0,30.0,-100.00,ENE,60,10.0,13.0,66,0.00,,,0.00,0.000000,,2013-02-02 04:32:00,
2013-02-01 20:52:00,38.0,28.0,-100.00,ENE,67,6.0,13.0,67,0.00,,,-99.99,0.000000,,2013-02-02 04:52:00,
2013-02-01 21:03:00,38.0,28.0,-100.00,ENE,67,6.0,13.0,67,0.00,,,-99.99,0.000000,,2013-02-02 05:03:00,
2013-02-01 21:11:00,38.0,28.0,-100.00,ENE,67,6.0,13.0,67,0.00,,,-99.99,0.000000,,2013-02-02 05:11:00,
2013-02-01 21:22:00,38.0,28.0,-100.00,ENE,67,6.0,13.0,67,0.00,,,-99.99,0.000000,,2013-02-02 05:22:00,
2013-02-01 21:32:00,38.0,28.0,-100.00,ENE,67,6.0,13.0,67,0.00,,,-99.99,0.000000,,2013-02-02 05:32:00,
2013-02-01 21:52:00,38.0,29.0,-100.00,ENE,68,6.0,12.0,70,0.00,,,0.00,0.000000,,2013-02-02 05:52:00,
2013-02-01 22:02:00,38.0,29.0,-100.00,ENE,68,6.0,12.0,70,0.00,,,0.00,0.000000,,2013-02-02 06:02:00,
2013-02-01 22:12:00,38.0,29.0,-100.00,ENE,68,6.0,12.0,70,0.00,,,0.00,0.000000,,2013-02-02 06:12:00,
2013-02-01 22:21:00,38.0,29.0,-100.00,ENE,68,6.0,12.0,70,0.00,,,0.00,0.000000,,2013-02-02 06:21:00,
2013-02-01 22:31:00,38.0,29.0,-100.00,ENE,68,6.0,12.0,70,0.00,,,0.00,0.000000,,2013-02-02 06:31:00,
2013-02-01 22:52:00,37.0,29.0,-100.00,NE,41,3.0,10.0,74,0.00,,,0.00,0.000000,,2013-02-02 06:52:00,
2013-02-01 23:02:00,37.0,29.0,-100.00,NE,41,3.0,10.0,74,0.00,,,0.00,0.000000,,2013-02-02 07:02:00,
2013-02-01 23:11:00,37.0,29.0,-100.00,NE,41,3.0,10.0,74,0.00,,,0.00,0.000000,,2013-02-02 07:11:00,
2013-02-01 23:21:00,37.0,29.0,-100.00,NE,41,3.0,10.0,74,0.00,,,0.00,0.000000,,2013-02-02 07:21:00,
2013-02-01 23:31:00,37.0,29.0,-100.00,NE,41,3.0,10.0,74,0.00,,,0.00,0.000000,,2013-02-02 07:31:00,
2013-02-01 23:52:00,37.0,31.0,-100.00,NE,50,4.0,8.0,79,0.00,,,0.00,0.000000,,2013-02-02 07:52:00,